Ria Da Coruna — EAGB — position and weather

sailwx.info

Track history (hours):
 
Tides and Currents Weather Stations Pressure Air Temp Water Temp Dewpoint Dewpoint Depression Visibility Wind Speed Wind Dir Waves Ship Positions

Ria Da Coruna

Last reported at 2017-Apr-21 16:06 UTC. Time now 2017-Apr-24 09:52 UTC.
Position N 43°37' W 002°11'.

Length 28 m.

Type: Fishing. MMSI: 224068650.

Date/timePositionNaut miles runAvg speedWind from/ knotsBaromVisibWave heightAir tempDewpointWater temp
2017-Apr-21 16:06N 43°37' W 002°11'110.1
2017-Apr-21 15:59N 43°38' W 002°11'510.2
2017-Apr-21 15:30N 43°43' W 002°10'  
2017-Apr-18 05:40N 44°52' W 001°52'0 0.4
2017-Apr-18 05:27N 44°52' W 001°52'5 3.8
2017-Apr-18 04:07N 44°50' W 001°59'110.1
2017-Apr-18 03:59N 44°49' W 001°60'4 9.0
2017-Apr-18 03:29N 44°44' W 001°58'5 9.7
2017-Apr-18 03:00N 44°40' W 001°56'1010.0
2017-Apr-18 02:01N 44°30' W 001°57'010.1
2017-Apr-18 02:00N 44°30' W 001°57'510.2
2017-Apr-18 01:30N 44°25' W 001°59'8 9.8
2017-Apr-18 00:39N 44°17' W 002°01'51 4.3
2017-Apr-17 12:49N 43°27' W 002°17'1 2.6
2017-Apr-17 12:30N 43°27' W 002°18'  
2017-Apr-12 16:08N 43°18' W 002°12'0 0.0
2017-Apr-12 15:54N 43°18' W 002°12'0 0.0
2017-Apr-12 15:30N 43°18' W 002°12'0 0.0
2017-Apr-12 15:00N 43°18' W 002°12'0 0.0
2017-Apr-12 14:30N 43°18' W 002°12'0 0.0
2017-Apr-12 13:19N 43°18' W 002°12'0 0.2
2017-Apr-12 13:00N 43°18' W 002°12'0 0.0
2017-Apr-12 12:30N 43°18' W 002°12'0 0.0
2017-Apr-12 11:59N 43°18' W 002°12'4610.8
2017-Apr-12 07:43N 44°04' W 002°08'510.8
2017-Apr-12 07:13N 44°10' W 002°07'410.8
2017-Apr-12 06:48N 44°14' W 002°06'1110.7
2017-Apr-12 05:47N 44°25' W 002°04'510.9
2017-Apr-12 05:21N 44°30' W 002°03'610.7
2017-Apr-12 04:48N 44°35' W 002°02'3 9.3
2017-Apr-12 04:30N 44°38' W 002°02'4 7.1
2017-Apr-12 04:00N 44°40' W 001°57'0 0.6
2017-Apr-12 03:30N 44°40' W 001°57'0 0.2
2017-Apr-12 03:00N 44°40' W 001°57'1 2.2
2017-Apr-12 02:30N 44°39' W 001°56'0 0.6
2017-Apr-12 02:00N 44°39' W 001°56'0 0.2
2017-Apr-12 01:29N 44°39' W 001°56'1 2.4
2017-Apr-12 01:00N 44°38' W 001°57'3 5.5
2017-Apr-12 00:23N 44°35' W 001°58'2 3.9
2017-Apr-12 00:00N 44°36' W 001°57'2 4.1
2017-Apr-11 23:31N 44°38' W 001°57'0 0.5
2017-Apr-11 23:01N 44°38' W 001°57'0 0.6
2017-Apr-11 22:30N 44°38' W 001°57'4 7.2
2017-Apr-11 22:00N 44°34' W 001°58'610.2
2017-Apr-11 21:22N 44°28' W 001°56'4 9.9
2017-Apr-11 21:00N 44°25' W 001°54'5 9.9
2017-Apr-11 20:30N 44°20' W 001°53'5 9.9
2017-Apr-11 20:00N 44°15' W 001°53'5 9.8
2017-Apr-11 19:30N 44°10' W 001°53'5 9.9
2017-Apr-11 19:00N 44°05' W 001°55'10 9.8
2017-Apr-11 18:01N 43°56' W 001°57'010.0
2017-Apr-11 17:59N 43°55' W 001°58'5 9.7
2017-Apr-11 17:30N 43°51' W 001°59'5 9.8
2017-Apr-11 17:00N 43°46' W 002°01'  
Track history (hours):
 
Tides and Currents Weather Stations Pressure Air Temp Water Temp Dewpoint Dewpoint Depression Visibility Wind Speed Wind Dir Waves Ship Positions

Ria Da Coruna

Last reported at 2017-Apr-21 16:06 UTC. Time now 2017-Apr-24 09:52 UTC.
Position N 43°37' W 002°11'.

Length 28 m.

Type: Fishing. MMSI: 224068650.

Date/timePositionNaut miles runAvg speedWind from/ knotsBaromVisibWave heightAir tempDewpointWater temp
2017-Apr-21 16:06N 43°37' W 002°11'110.1
2017-Apr-21 15:59N 43°38' W 002°11'510.2
2017-Apr-21 15:30N 43°43' W 002°10'  
2017-Apr-18 05:40N 44°52' W 001°52'0 0.4
2017-Apr-18 05:27N 44°52' W 001°52'5 3.8
2017-Apr-18 04:07N 44°50' W 001°59'110.1
2017-Apr-18 03:59N 44°49' W 001°60'4 9.0
2017-Apr-18 03:29N 44°44' W 001°58'5 9.7
2017-Apr-18 03:00N 44°40' W 001°56'1010.0
2017-Apr-18 02:01N 44°30' W 001°57'010.1
2017-Apr-18 02:00N 44°30' W 001°57'510.2
2017-Apr-18 01:30N 44°25' W 001°59'8 9.8
2017-Apr-18 00:39N 44°17' W 002°01'51 4.3
2017-Apr-17 12:49N 43°27' W 002°17'1 2.6
2017-Apr-17 12:30N 43°27' W 002°18'  
2017-Apr-12 16:08N 43°18' W 002°12'0 0.0
2017-Apr-12 15:54N 43°18' W 002°12'0 0.0
2017-Apr-12 15:30N 43°18' W 002°12'0 0.0
2017-Apr-12 15:00N 43°18' W 002°12'0 0.0
2017-Apr-12 14:30N 43°18' W 002°12'0 0.0
2017-Apr-12 13:19N 43°18' W 002°12'0 0.2
2017-Apr-12 13:00N 43°18' W 002°12'0 0.0
2017-Apr-12 12:30N 43°18' W 002°12'0 0.0
2017-Apr-12 11:59N 43°18' W 002°12'4610.8
2017-Apr-12 07:43N 44°04' W 002°08'510.8
2017-Apr-12 07:13N 44°10' W 002°07'410.8
2017-Apr-12 06:48N 44°14' W 002°06'1110.7
2017-Apr-12 05:47N 44°25' W 002°04'510.9
2017-Apr-12 05:21N 44°30' W 002°03'610.7
2017-Apr-12 04:48N 44°35' W 002°02'3 9.3
2017-Apr-12 04:30N 44°38' W 002°02'4 7.1
2017-Apr-12 04:00N 44°40' W 001°57'0 0.6
2017-Apr-12 03:30N 44°40' W 001°57'0 0.2
2017-Apr-12 03:00N 44°40' W 001°57'1 2.2
2017-Apr-12 02:30N 44°39' W 001°56'0 0.6
2017-Apr-12 02:00N 44°39' W 001°56'0 0.2
2017-Apr-12 01:29N 44°39' W 001°56'1 2.4
2017-Apr-12 01:00N 44°38' W 001°57'3 5.5
2017-Apr-12 00:23N 44°35' W 001°58'2 3.9
2017-Apr-12 00:00N 44°36' W 001°57'2 4.1
2017-Apr-11 23:31N 44°38' W 001°57'0 0.5
2017-Apr-11 23:01N 44°38' W 001°57'0 0.6
2017-Apr-11 22:30N 44°38' W 001°57'4 7.2
2017-Apr-11 22:00N 44°34' W 001°58'610.2
2017-Apr-11 21:22N 44°28' W 001°56'4 9.9
2017-Apr-11 21:00N 44°25' W 001°54'5 9.9
2017-Apr-11 20:30N 44°20' W 001°53'5 9.9
2017-Apr-11 20:00N 44°15' W 001°53'5 9.8
2017-Apr-11 19:30N 44°10' W 001°53'5 9.9
2017-Apr-11 19:00N 44°05' W 001°55'10 9.8
2017-Apr-11 18:01N 43°56' W 001°57'010.0
2017-Apr-11 17:59N 43°55' W 001°58'5 9.7
2017-Apr-11 17:30N 43°51' W 001°59'5 9.8
2017-Apr-11 17:00N 43°46' W 002°01'  

Dump ship's entire track history